createdAt,value
2022-12-18T00:00:53.162Z,52.2
2022-12-18T00:02:09.446Z,52.3
2022-12-18T00:03:25.737Z,52.5
2022-12-18T00:04:42.041Z,52.2
2022-12-18T00:05:58.343Z,52.8
2022-12-18T00:07:14.632Z,52.2
2022-12-18T00:08:30.935Z,52.3
2022-12-18T00:09:47.218Z,52.3
2022-12-18T00:11:03.524Z,52.5
2022-12-18T00:12:19.811Z,52.3
2022-12-18T00:13:36.118Z,52.3
2022-12-18T00:14:52.404Z,52.5
2022-12-18T00:16:07.725Z,52.5
2022-12-18T00:17:24.023Z,52.5
2022-12-18T00:18:40.302Z,52.6
2022-12-18T00:19:56.603Z,53
2022-12-18T00:21:12.914Z,53
2022-12-18T00:22:29.202Z,53.1
2022-12-18T00:23:45.499Z,53.4
2022-12-18T00:25:01.800Z,53.3
2022-12-18T00:26:18.093Z,52.8
2022-12-18T00:27:34.373Z,52.6
2022-12-18T00:28:50.676Z,52.5
2022-12-18T00:30:06.980Z,52.5
2022-12-18T00:31:23.278Z,55.4
2022-12-18T00:32:38.577Z,53
2022-12-18T00:33:54.885Z,53.1
2022-12-18T00:35:11.163Z,53
2022-12-18T00:36:27.470Z,52.6
2022-12-18T00:37:43.767Z,52.6
2022-12-18T00:39:00.061Z,52.6
2022-12-18T00:40:16.359Z,52.5
2022-12-18T00:41:32.644Z,53
2022-12-18T00:42:48.935Z,52.6
2022-12-18T00:44:05.251Z,52.5
2022-12-18T00:45:21.550Z,52.6
2022-12-18T00:46:37.840Z,55.7
2022-12-18T00:47:54.140Z,53
2022-12-18T00:49:09.441Z,52.8
2022-12-18T00:50:25.744Z,52.8
2022-12-18T00:51:42.035Z,52.8
2022-12-18T00:52:58.337Z,53.1
2022-12-18T00:54:14.622Z,52.5
2022-12-18T00:55:30.910Z,52.8
2022-12-18T00:56:47.215Z,52.8
2022-12-18T00:58:03.512Z,52.6
2022-12-18T00:59:19.817Z,52.8
2022-12-18T01:00:36.094Z,52.6
2022-12-18T01:01:52.413Z,53
2022-12-18T01:03:08.712Z,52.6
2022-12-18T01:04:24.992Z,52.6
2022-12-18T01:05:40.303Z,52.5
2022-12-18T01:06:56.602Z,52.5
2022-12-18T01:08:12.883Z,52.6
2022-12-18T01:09:29.186Z,52.6
2022-12-18T01:10:45.482Z,52.8
2022-12-18T01:12:01.784Z,52.5
2022-12-18T01:13:18.091Z,52.5
2022-12-18T01:14:34.380Z,52.2
2022-12-18T01:15:50.672Z,51.8
2022-12-18T01:17:06.966Z,52.3
2022-12-18T01:18:23.249Z,52.2
2022-12-18T01:19:39.561Z,51.7
2022-12-18T01:20:55.853Z,52
2022-12-18T01:22:11.169Z,52
2022-12-18T01:23:27.470Z,52.5
2022-12-18T01:24:43.753Z,52.3
2022-12-18T01:26:00.054Z,52.5
2022-12-18T01:27:16.337Z,52.5
2022-12-18T01:28:32.641Z,55.9
2022-12-18T01:29:48.927Z,52.5
2022-12-18T01:31:05.234Z,52.5
2022-12-18T01:32:21.520Z,52.5
2022-12-18T01:33:37.823Z,52.5
2022-12-18T01:34:54.118Z,52.5
2022-12-18T01:36:10.412Z,51.7
2022-12-18T01:37:26.719Z,51.4
2022-12-18T01:38:42.031Z,50.2
2022-12-18T01:39:58.322Z,51
2022-12-18T01:41:14.608Z,51.5
2022-12-18T01:42:30.903Z,51.5
2022-12-18T01:43:47.192Z,52
2022-12-18T01:45:03.503Z,51.7
2022-12-18T01:46:19.791Z,51.7
2022-12-18T01:47:36.097Z,52
2022-12-18T01:48:52.381Z,51.5
2022-12-18T01:50:08.689Z,51.5
2022-12-18T01:51:24.985Z,52.3
2022-12-18T01:52:41.267Z,52.8
2022-12-18T01:53:57.573Z,53.1
2022-12-18T01:55:12.871Z,53
2022-12-18T01:56:29.166Z,53
2022-12-18T01:57:45.480Z,53
2022-12-18T01:59:01.769Z,53
2022-12-18T02:00:18.084Z,52.6
2022-12-18T02:01:34.364Z,53
2022-12-18T02:02:50.653Z,52.6
2022-12-18T02:04:06.957Z,53.3
2022-12-18T02:05:23.241Z,52.8
2022-12-18T02:06:39.553Z,53.4
2022-12-18T02:07:55.846Z,53.8
2022-12-18T02:09:12.129Z,53
2022-12-18T02:10:28.429Z,52.8
2022-12-18T02:11:43.757Z,53
2022-12-18T02:13:00.030Z,52.5
2022-12-18T02:14:16.348Z,51.5
2022-12-18T02:15:32.629Z,52
2022-12-18T02:16:48.927Z,52
2022-12-18T02:18:05.208Z,51.4
2022-12-18T02:19:21.516Z,51
2022-12-18T02:20:37.803Z,51.5
2022-12-18T02:21:54.118Z,52.2
2022-12-18T02:23:10.399Z,52.5
2022-12-18T02:24:26.696Z,52.5
2022-12-18T02:25:43.000Z,51.8
2022-12-18T02:26:59.294Z,52
2022-12-18T02:28:14.599Z,52.2
2022-12-18T02:29:30.899Z,52.3
2022-12-18T02:30:47.199Z,52.5
2022-12-18T02:32:03.479Z,52.5
2022-12-18T02:33:19.802Z,52.5
2022-12-18T02:34:36.077Z,52.5
2022-12-18T02:35:52.369Z,51.8
2022-12-18T02:37:08.684Z,51.8
2022-12-18T02:38:24.968Z,52
2022-12-18T02:39:41.256Z,50.9
2022-12-18T02:40:57.562Z,50.4
2022-12-18T02:42:13.866Z,51.5
2022-12-18T02:43:30.136Z,51.4
2022-12-18T02:44:45.460Z,52.2
2022-12-18T02:46:01.763Z,52
2022-12-18T02:47:18.043Z,51.5
2022-12-18T02:48:34.341Z,51.7
2022-12-18T02:49:50.636Z,51.5
2022-12-18T02:51:06.936Z,51.2
2022-12-18T02:52:23.229Z,51.2
2022-12-18T02:53:39.517Z,51.7
2022-12-18T02:54:55.823Z,52
2022-12-18T02:56:12.117Z,52.2
2022-12-18T02:57:28.408Z,51.7
2022-12-18T02:58:44.708Z,51.7
2022-12-18T03:00:01.011Z,52.5
2022-12-18T03:01:16.312Z,52.5
2022-12-18T03:02:32.615Z,52.5
2022-12-18T03:05:05.209Z,52.6
2022-12-18T03:06:21.500Z,52.6
2022-12-18T03:07:37.797Z,53
2022-12-18T03:08:54.093Z,52.6
2022-12-18T03:10:10.378Z,52.6
2022-12-18T03:12:42.968Z,52.3
2022-12-18T03:13:59.268Z,52.5
2022-12-18T03:15:15.568Z,52.2
2022-12-18T03:16:31.862Z,52.3
2022-12-18T03:17:47.169Z,52.5
2022-12-18T03:19:03.476Z,52.3
2022-12-18T03:20:19.764Z,52.5
2022-12-18T03:21:36.069Z,52.3
2022-12-18T03:22:52.358Z,52
2022-12-18T03:24:08.655Z,52.2
2022-12-18T03:25:24.946Z,52.3
2022-12-18T03:26:41.250Z,52.2
2022-12-18T03:27:57.536Z,52.6
2022-12-18T03:29:13.830Z,52.6
2022-12-18T03:30:30.125Z,53
2022-12-18T03:31:46.418Z,52.8
2022-12-18T03:33:02.722Z,52.8
2022-12-18T03:34:18.035Z,51.2
2022-12-18T03:35:34.332Z,52.5
2022-12-18T03:36:50.618Z,52.5
2022-12-18T03:38:06.923Z,52.5
2022-12-18T03:39:23.219Z,52.3
2022-12-18T03:40:39.508Z,52.5
2022-12-18T03:41:55.807Z,54.4
2022-12-18T03:43:12.095Z,52.8
2022-12-18T03:44:28.399Z,53
2022-12-18T03:45:44.686Z,52.6
2022-12-18T03:47:00.986Z,52.5
2022-12-18T03:48:17.287Z,52.3
2022-12-18T03:49:33.584Z,51.8
2022-12-18T03:50:48.897Z,51.7
2022-12-18T03:52:05.192Z,52
2022-12-18T03:53:21.489Z,52.2
2022-12-18T03:55:54.071Z,52
2022-12-18T03:57:10.384Z,56
2022-12-18T03:58:25.681Z,52.2
2022-12-18T03:59:41.984Z,52.5
2022-12-18T04:00:58.282Z,52.2
2022-12-18T04:02:14.572Z,52.3
2022-12-18T04:03:30.864Z,52.5
2022-12-18T04:06:03.473Z,52
2022-12-18T04:07:19.758Z,52.3
2022-12-18T04:08:36.057Z,51.5
2022-12-18T04:09:52.345Z,52
2022-12-18T04:11:08.638Z,51.7
2022-12-18T04:12:24.942Z,52.2
2022-12-18T04:13:41.240Z,52
2022-12-18T04:14:56.556Z,52
2022-12-18T04:16:12.841Z,51.7
2022-12-18T04:17:29.151Z,52.3
2022-12-18T04:18:45.436Z,52.3
2022-12-18T04:20:01.736Z,52.2
2022-12-18T04:21:18.021Z,51.8
2022-12-18T04:22:34.317Z,52
2022-12-18T04:23:50.621Z,52.5
2022-12-18T04:25:06.907Z,52.8
2022-12-18T04:26:23.208Z,52.8
2022-12-18T04:27:39.517Z,53
2022-12-18T04:28:55.811Z,53.3
2022-12-18T04:30:12.105Z,53
2022-12-18T04:31:28.514Z,53.1
2022-12-18T04:32:44.805Z,53.1
2022-12-18T04:34:01.100Z,53
2022-12-18T04:35:17.394Z,52.5
2022-12-18T04:36:33.697Z,52
2022-12-18T04:37:49.998Z,52.2
2022-12-18T04:39:06.293Z,51.4
2022-12-18T04:40:22.589Z,51
2022-12-18T04:41:38.879Z,51.7
2022-12-18T04:42:55.176Z,52
2022-12-18T04:44:11.480Z,52.6
2022-12-18T04:45:27.779Z,52.8
2022-12-18T04:46:44.057Z,51.8
2022-12-18T04:47:59.379Z,51.2
2022-12-18T04:49:15.669Z,51.5
2022-12-18T04:50:31.967Z,51.4
2022-12-18T04:51:48.265Z,52
2022-12-18T04:54:20.853Z,54.4
2022-12-18T04:55:37.150Z,53
2022-12-18T04:56:53.440Z,52.5
2022-12-18T04:58:09.753Z,53.1
2022-12-18T04:59:26.030Z,53.4
2022-12-18T05:00:42.327Z,53.1
2022-12-18T05:01:58.634Z,53.3
2022-12-18T05:03:14.925Z,53.3
2022-12-18T05:04:30.241Z,53.4
2022-12-18T05:05:46.538Z,52.6
2022-12-18T05:07:02.822Z,53
2022-12-18T05:08:19.129Z,53
2022-12-18T05:09:35.422Z,53
2022-12-18T05:10:51.711Z,52.5
2022-12-18T05:12:08.017Z,52.2
2022-12-18T05:13:24.306Z,52
2022-12-18T05:14:40.607Z,51.4
2022-12-18T05:15:56.899Z,51.2
2022-12-18T05:17:13.186Z,51.7
2022-12-18T05:18:29.484Z,51.5
2022-12-18T05:19:45.782Z,51.5
2022-12-18T05:21:01.088Z,52.5
2022-12-18T05:22:17.394Z,52.5
2022-12-18T05:23:33.680Z,52.2
2022-12-18T05:24:49.977Z,52.5
2022-12-18T05:26:06.284Z,52.3
2022-12-18T05:27:22.578Z,53
2022-12-18T05:28:38.883Z,53.8
2022-12-18T05:29:55.167Z,53.1
2022-12-18T05:31:11.462Z,53.3
2022-12-18T05:32:27.754Z,53
2022-12-18T05:33:44.053Z,52.6
2022-12-18T05:35:00.348Z,52.3
2022-12-18T05:36:16.641Z,53
2022-12-18T05:37:31.962Z,53
2022-12-18T05:38:48.261Z,53.3
2022-12-18T05:40:04.545Z,53.4
2022-12-18T05:41:20.849Z,53.9
2022-12-18T05:42:37.143Z,53.6
2022-12-18T05:43:53.432Z,53.9
2022-12-18T05:45:09.736Z,53.6
2022-12-18T05:46:26.025Z,53.1
2022-12-18T05:47:42.333Z,52.3
2022-12-18T05:48:58.613Z,53.1
2022-12-18T05:50:14.914Z,53.3
2022-12-18T05:51:31.221Z,53.1
2022-12-18T05:52:47.506Z,53.1
2022-12-18T05:54:02.822Z,53
2022-12-18T05:55:19.129Z,53.4
2022-12-18T05:56:35.405Z,53
2022-12-18T05:57:51.707Z,52
2022-12-18T05:59:08.000Z,52.3
2022-12-18T06:00:24.288Z,52.2
2022-12-18T06:01:40.589Z,52.2
2022-12-18T06:02:56.896Z,51.7
2022-12-18T06:04:13.187Z,52.2
2022-12-18T06:05:29.481Z,52.5
2022-12-18T06:06:45.780Z,53
2022-12-18T06:08:02.075Z,52.6
2022-12-18T06:09:18.362Z,53
2022-12-18T06:10:33.687Z,53.1
2022-12-18T06:11:49.976Z,53.4
2022-12-18T06:13:06.261Z,53.4
2022-12-18T06:14:22.569Z,53.6
2022-12-18T06:15:38.864Z,53.1
2022-12-18T06:16:55.159Z,53
2022-12-18T06:18:11.464Z,55.2
2022-12-18T06:19:27.694Z,52
2022-12-18T06:20:43.996Z,53.3
2022-12-18T06:22:00.289Z,52
2022-12-18T06:23:16.578Z,52.6
2022-12-18T06:24:32.840Z,53.8
2022-12-18T06:25:49.082Z,52.8
2022-12-18T06:27:04.394Z,52.8
2022-12-18T06:28:20.685Z,53.4
2022-12-18T06:29:36.931Z,53
2022-12-18T06:30:53.230Z,52.5
2022-12-18T06:32:09.487Z,53
2022-12-18T06:33:25.737Z,52.6
2022-12-18T06:34:41.968Z,53
2022-12-18T06:35:58.217Z,53
2022-12-18T06:37:14.450Z,53.3
2022-12-18T06:38:30.691Z,53
2022-12-18T06:39:46.949Z,53.1
2022-12-18T06:41:03.181Z,53.4
2022-12-18T06:42:19.430Z,53.8
2022-12-18T06:43:34.678Z,53.9
2022-12-18T06:44:50.933Z,53.8
2022-12-18T06:46:07.159Z,53.4
2022-12-18T06:47:23.402Z,52.8
2022-12-18T06:48:39.641Z,53.1
2022-12-18T06:49:55.883Z,55.2
2022-12-18T06:51:12.126Z,53
2022-12-18T06:52:28.365Z,53.1
2022-12-18T06:53:44.610Z,53
2022-12-18T06:55:00.855Z,53.4
2022-12-18T06:56:17.110Z,53.4
2022-12-18T06:57:33.340Z,53.1
2022-12-18T06:58:49.592Z,52.8
2022-12-18T07:00:04.836Z,52.6
2022-12-18T07:01:21.092Z,52.6
2022-12-18T07:03:53.559Z,54.9
2022-12-18T07:05:09.806Z,52.3
2022-12-18T07:06:26.040Z,52.6
2022-12-18T07:07:42.298Z,52.3
2022-12-18T07:08:58.529Z,53
2022-12-18T07:10:14.768Z,52.5
2022-12-18T07:11:31.020Z,53.3
2022-12-18T07:12:47.257Z,53.1
2022-12-18T07:14:03.492Z,54.6
2022-12-18T07:15:19.740Z,53.8
2022-12-18T07:16:35.010Z,53.9
2022-12-18T07:17:51.248Z,55.7
2022-12-18T07:19:07.476Z,55.5
2022-12-18T07:20:23.732Z,53.9
2022-12-18T07:21:39.972Z,59.9
2022-12-18T07:22:56.203Z,61.8
2022-12-18T07:24:12.461Z,67.3
2022-12-18T07:25:28.685Z,53.9
2022-12-18T07:26:44.926Z,54.4
2022-12-18T07:28:01.184Z,53.6
2022-12-18T07:29:17.410Z,53.4
2022-12-18T07:30:33.668Z,53.9
2022-12-18T07:31:49.896Z,53.9
2022-12-18T07:33:05.150Z,53.4
2022-12-18T07:34:21.400Z,54.3
2022-12-18T07:35:37.636Z,53.9
2022-12-18T07:36:53.878Z,53
2022-12-18T07:38:10.124Z,54.4
2022-12-18T07:39:26.377Z,53.6
2022-12-18T07:40:42.611Z,54.3
2022-12-18T07:41:58.855Z,54.3
2022-12-18T07:43:15.086Z,54.7
2022-12-18T07:44:31.332Z,53.9
2022-12-18T07:45:47.574Z,53.8
2022-12-18T07:47:03.828Z,52.5
2022-12-18T07:48:20.060Z,53.4
2022-12-18T07:49:35.324Z,54.3
2022-12-18T07:50:51.562Z,53.4
2022-12-18T07:52:07.800Z,53.9
2022-12-18T07:53:24.054Z,54.1
2022-12-18T07:54:40.285Z,54.1
2022-12-18T07:55:56.533Z,54.4
2022-12-18T07:57:12.770Z,54.4
2022-12-18T07:58:29.020Z,53.9
2022-12-18T07:59:45.252Z,60.5
2022-12-18T08:01:01.496Z,53.6
2022-12-18T08:02:17.743Z,53.9
2022-12-18T08:03:33.975Z,56.5
2022-12-18T08:04:50.222Z,53.6
2022-12-18T08:06:05.480Z,54.6
2022-12-18T08:07:21.727Z,54.1
2022-12-18T08:08:37.962Z,54.4
2022-12-18T08:09:54.194Z,53.1
2022-12-18T08:11:10.441Z,53
2022-12-18T08:12:26.689Z,53.8
2022-12-18T08:13:41.954Z,53.6
2022-12-18T08:14:58.189Z,55.9
2022-12-18T08:16:14.426Z,53.6
2022-12-18T08:17:30.681Z,53.9
2022-12-18T08:18:46.913Z,54.4
2022-12-18T08:20:03.163Z,53.9
2022-12-18T08:21:19.394Z,54.9
2022-12-18T08:22:35.649Z,54.3
2022-12-18T08:23:51.879Z,54.4
2022-12-18T08:25:08.123Z,53.9
2022-12-18T08:26:24.377Z,53.6
2022-12-18T08:27:40.607Z,53
2022-12-18T08:28:56.860Z,53.4
2022-12-18T08:30:12.106Z,53.1
2022-12-18T08:31:28.358Z,53.4
2022-12-18T08:32:44.589Z,53
2022-12-18T08:34:00.828Z,54.9
2022-12-18T08:35:17.084Z,53.8
2022-12-18T08:36:33.315Z,54.7
2022-12-18T08:37:49.570Z,54.3
2022-12-18T08:39:05.798Z,53.4
2022-12-18T08:40:22.036Z,53.3
2022-12-18T08:41:38.291Z,53.1
2022-12-18T08:42:54.527Z,53.6
2022-12-18T08:44:10.765Z,53.9
2022-12-18T08:45:27.006Z,54.9
2022-12-18T08:46:42.271Z,57
2022-12-18T08:47:58.507Z,54.7
2022-12-18T08:49:14.745Z,54.9
2022-12-18T08:50:30.998Z,53
2022-12-18T08:51:47.237Z,53.9
2022-12-18T08:53:03.469Z,52.8
2022-12-18T08:54:19.722Z,52.5
2022-12-18T08:55:35.965Z,52.8
2022-12-18T08:56:52.194Z,54.3
2022-12-18T08:58:08.437Z,54.7
2022-12-18T08:59:24.702Z,56.3
2022-12-18T09:00:40.935Z,57
2022-12-18T09:01:57.178Z,55.7
2022-12-18T09:03:12.437Z,55.4
2022-12-18T09:04:28.683Z,53.1
2022-12-18T09:05:44.917Z,51.7
2022-12-18T09:07:01.160Z,52.2
2022-12-18T09:08:17.404Z,49.6
2022-12-18T09:09:33.642Z,50.1
2022-12-18T09:10:49.878Z,49.3
2022-12-18T09:12:06.133Z,50.4
2022-12-18T09:13:22.356Z,50.7
2022-12-18T09:14:38.601Z,51.2
2022-12-18T09:15:54.843Z,50.4
2022-12-18T09:17:11.084Z,50.1
2022-12-18T09:18:27.322Z,47.8
2022-12-18T09:19:42.580Z,52.6
2022-12-18T09:20:58.825Z,57.2
2022-12-18T09:22:15.062Z,59.4
2022-12-18T09:23:31.313Z,60.7
2022-12-18T09:24:47.534Z,58.9
2022-12-18T09:26:03.781Z,60.2
2022-12-18T09:27:20.013Z,58.8
2022-12-18T09:28:36.268Z,58.9
2022-12-18T09:29:52.508Z,59.4
2022-12-18T09:31:08.743Z,58.8
2022-12-18T09:32:24.977Z,58.6
2022-12-18T09:33:41.213Z,59.9
2022-12-18T09:34:57.471Z,52.5
2022-12-18T09:36:12.709Z,50.1
2022-12-18T09:37:28.959Z,49.1
2022-12-18T09:38:45.191Z,49.9
2022-12-18T09:40:01.441Z,48.1
2022-12-18T09:41:17.674Z,48.5
2022-12-18T09:43:50.159Z,48.5
2022-12-18T09:45:06.406Z,50.1
2022-12-18T09:46:22.641Z,48.5
2022-12-18T09:47:38.886Z,49.7
2022-12-18T09:48:55.123Z,48.5
2022-12-18T09:50:11.361Z,47.8
2022-12-18T09:51:27.591Z,48.5
2022-12-18T09:52:42.848Z,47.3
2022-12-18T09:53:59.084Z,50.1
2022-12-18T09:55:15.335Z,48.3
2022-12-18T09:56:31.563Z,46.7
2022-12-18T09:57:47.811Z,45.6
2022-12-18T09:59:04.055Z,47.2
2022-12-18T10:00:20.287Z,46.8
2022-12-18T10:01:36.526Z,46.7
2022-12-18T10:02:52.778Z,47.6
2022-12-18T10:04:09.014Z,45.1
2022-12-18T10:05:25.245Z,48.3
2022-12-18T10:06:41.494Z,48.5
2022-12-18T10:07:57.719Z,47.3
2022-12-18T10:09:12.982Z,46.5
2022-12-18T10:10:29.221Z,45.7
2022-12-18T10:11:45.462Z,48
2022-12-18T10:13:01.710Z,48.3
2022-12-18T10:14:17.936Z,44.1
2022-12-18T10:15:34.191Z,47.3
2022-12-18T10:16:50.414Z,47.5
2022-12-18T10:18:06.652Z,48.9
2022-12-18T10:19:22.905Z,48.3
2022-12-18T10:20:39.142Z,46.2
2022-12-18T10:21:55.379Z,47.8
2022-12-18T10:23:11.629Z,46.5
2022-12-18T10:24:27.863Z,45.1
2022-12-18T10:25:43.120Z,45.2
2022-12-18T10:26:59.350Z,45.2
2022-12-18T10:28:15.598Z,45.7
2022-12-18T10:29:31.844Z,44.9
2022-12-18T10:30:48.077Z,44.6
2022-12-18T10:32:04.319Z,43.3
2022-12-18T10:33:20.553Z,43.8
2022-12-18T10:34:36.788Z,46.2
2022-12-18T10:35:53.032Z,47.8
2022-12-18T10:37:09.284Z,45.2
2022-12-18T10:38:25.516Z,45.1
2022-12-18T10:39:41.752Z,45.9
2022-12-18T10:40:58.001Z,46.2
2022-12-18T10:42:13.246Z,45.9
2022-12-18T10:43:29.502Z,46.4
2022-12-18T10:44:45.735Z,46.2
2022-12-18T10:46:01.968Z,45.7
2022-12-18T10:47:18.220Z,45.7
2022-12-18T10:48:34.452Z,44.7
2022-12-18T10:49:50.684Z,47.3
2022-12-18T10:51:06.927Z,44.6
2022-12-18T10:52:23.177Z,44.1
2022-12-18T10:53:39.407Z,43
2022-12-18T10:54:55.661Z,43.8
2022-12-18T10:56:11.895Z,43.9
2022-12-18T10:57:28.141Z,45.7
2022-12-18T10:59:59.629Z,43.9
2022-12-18T11:01:15.872Z,46.4
2022-12-18T11:02:32.114Z,46.2
2022-12-18T11:03:48.346Z,46.7
2022-12-18T11:05:04.581Z,46
2022-12-18T11:06:20.837Z,46.4
2022-12-18T11:07:37.075Z,46.5
2022-12-18T11:08:53.311Z,48.6
2022-12-18T11:10:09.557Z,45.6
2022-12-18T11:11:25.791Z,45.7
2022-12-18T11:12:42.028Z,48
2022-12-18T11:13:58.264Z,47.3
2022-12-18T11:15:13.525Z,47
2022-12-18T11:16:29.773Z,53
2022-12-18T11:17:46.010Z,46.8
2022-12-18T11:19:02.247Z,45.7
2022-12-18T11:20:18.491Z,45.2
2022-12-18T11:21:34.723Z,48.3
2022-12-18T11:22:50.956Z,46.5
2022-12-18T11:24:07.207Z,63.4
2022-12-18T11:25:23.460Z,45.9
2022-12-18T11:26:39.698Z,45.7
2022-12-18T11:27:55.935Z,45.1
2022-12-18T11:29:12.169Z,46.5
2022-12-18T11:30:28.404Z,44.6
2022-12-18T11:31:43.650Z,46.4
2022-12-18T11:32:59.892Z,47.6
2022-12-18T11:34:16.143Z,48.3
2022-12-18T11:35:32.383Z,47.6
2022-12-18T11:36:48.629Z,45.7
2022-12-18T11:38:04.855Z,45.7
2022-12-18T11:39:21.102Z,46.2
2022-12-18T11:40:37.329Z,45.9
2022-12-18T11:41:53.581Z,46.5
2022-12-18T11:43:09.811Z,43.9
2022-12-18T11:44:26.069Z,44.4
2022-12-18T11:45:42.300Z,44.4
2022-12-18T11:46:58.534Z,44.4
2022-12-18T11:48:13.791Z,45.1
2022-12-18T11:49:30.031Z,51.4
2022-12-18T11:50:46.000Z,44.9
2022-12-18T11:52:02.520Z,44.4
2022-12-18T11:53:18.750Z,44.3
2022-12-18T11:54:35.000Z,43.8
2022-12-18T11:55:51.237Z,43.8
2022-12-18T11:57:07.475Z,44.4
2022-12-18T11:58:23.714Z,45.4
2022-12-18T11:59:39.950Z,44.6
2022-12-18T12:00:56.200Z,46.2
2022-12-18T12:02:12.430Z,45.6
2022-12-18T12:03:28.664Z,46.2
2022-12-18T12:04:43.940Z,46.2
2022-12-18T12:06:00.165Z,46.8
2022-12-18T12:07:16.417Z,47.8
2022-12-18T12:08:32.645Z,47.8
2022-12-18T12:09:48.878Z,46.2
2022-12-18T12:11:05.125Z,47.3
2022-12-18T12:12:21.372Z,48.5
2022-12-18T12:13:37.598Z,47.2
2022-12-18T12:14:53.850Z,46.2
2022-12-18T12:16:10.097Z,45.2
2022-12-18T12:17:26.328Z,44.1
2022-12-18T12:18:42.570Z,45.1
2022-12-18T12:19:58.804Z,45.4
2022-12-18T12:21:14.068Z,45.6
2022-12-18T12:22:30.310Z,46.8
2022-12-18T12:23:46.546Z,48.3
2022-12-18T12:25:02.776Z,49.6
2022-12-18T12:26:19.034Z,49.1
2022-12-18T12:27:35.272Z,48.8
2022-12-18T12:28:50.532Z,48.6
2022-12-18T12:30:06.766Z,46
2022-12-18T12:31:23.017Z,45.7
2022-12-18T12:32:39.236Z,46.5
2022-12-18T12:33:55.477Z,46.8
2022-12-18T12:35:11.728Z,47.3
2022-12-18T12:36:27.970Z,52.8
2022-12-18T12:37:44.198Z,47
2022-12-18T12:39:00.444Z,48
2022-12-18T12:40:16.684Z,47.8
2022-12-18T12:41:32.931Z,49.1
2022-12-18T12:42:49.179Z,48.5
2022-12-18T12:44:05.412Z,47.8
2022-12-18T12:45:20.675Z,47.3
2022-12-18T12:46:36.916Z,47.8
2022-12-18T12:47:53.152Z,48.5
2022-12-18T12:49:09.000Z,48.3
2022-12-18T12:50:25.623Z,47.6
2022-12-18T12:51:41.874Z,48.6
2022-12-18T12:52:58.103Z,48.5
2022-12-18T12:54:14.344Z,48.9
2022-12-18T12:55:30.595Z,49.4
2022-12-18T12:56:46.819Z,49.4
2022-12-18T12:58:03.058Z,49.6
2022-12-18T12:59:19.309Z,49.4
2022-12-18T13:00:35.546Z,49.9
2022-12-18T13:01:50.810Z,49.1
2022-12-18T13:03:07.044Z,49.4
2022-12-18T13:04:23.279Z,49.9
2022-12-18T13:05:39.524Z,49.1
2022-12-18T13:06:55.762Z,48.1
2022-12-18T13:08:12.009Z,46.8
2022-12-18T13:09:28.243Z,47.3
2022-12-18T13:10:44.490Z,46.2
2022-12-18T13:12:00.736Z,46.5
2022-12-18T13:13:16.972Z,48.8
2022-12-18T13:14:33.224Z,48.9
2022-12-18T13:15:49.464Z,50.2
2022-12-18T13:17:05.701Z,48.1
2022-12-18T13:18:20.941Z,49.1
2022-12-18T13:19:37.201Z,49.6
2022-12-18T13:20:53.428Z,51.7
2022-12-18T13:22:09.674Z,50.5
2022-12-18T13:23:25.910Z,50.2
2022-12-18T13:24:42.162Z,50.7
2022-12-18T13:25:58.385Z,49.6
2022-12-18T13:27:14.652Z,49.9
2022-12-18T13:28:30.867Z,50.2
2022-12-18T13:29:47.112Z,50.4
2022-12-18T13:31:03.353Z,50.5
2022-12-18T13:32:19.593Z,51.5
2022-12-18T13:33:35.833Z,49.9
2022-12-18T13:34:51.091Z,51.8
2022-12-18T13:36:07.338Z,49.6
2022-12-18T13:37:23.573Z,49.1
2022-12-18T13:38:39.809Z,49.7
2022-12-18T13:39:56.063Z,48.9
2022-12-18T13:41:12.305Z,48.6
2022-12-18T13:42:28.534Z,49.6
2022-12-18T13:43:44.779Z,51
2022-12-18T13:45:01.023Z,50.1
2022-12-18T13:46:17.250Z,51.7
2022-12-18T13:47:33.511Z,50.2
2022-12-18T13:48:49.742Z,50.7
2022-12-18T13:50:05.989Z,51.2
2022-12-18T13:51:21.253Z,51.4
2022-12-18T13:52:37.483Z,50.1
2022-12-18T13:53:53.729Z,51.2
2022-12-18T13:55:09.959Z,50.4
2022-12-18T13:56:26.211Z,50.4
2022-12-18T13:57:42.447Z,49.9
2022-12-18T13:58:58.674Z,50.9
2022-12-18T14:00:14.926Z,53
2022-12-18T14:01:31.159Z,55.5
2022-12-18T14:02:47.405Z,49.4
2022-12-18T14:04:03.645Z,48.9
2022-12-18T14:05:19.894Z,49.1
2022-12-18T14:06:36.139Z,48.8
2022-12-18T14:07:51.382Z,49.4
2022-12-18T14:09:07.623Z,49.9
2022-12-18T14:10:23.867Z,50.2
2022-12-18T14:11:40.100Z,51.7
2022-12-18T14:12:56.341Z,50.2
2022-12-18T14:14:12.593Z,50.4
2022-12-18T14:15:28.834Z,49.1
2022-12-18T14:16:45.082Z,49.6
2022-12-18T14:18:01.312Z,50.2
2022-12-18T14:19:17.551Z,49.3
2022-12-18T14:21:50.042Z,49.9
2022-12-18T14:23:06.287Z,50.1
2022-12-18T14:24:21.528Z,51.2
2022-12-18T14:25:37.774Z,55.5
2022-12-18T14:26:54.020Z,51.5
2022-12-18T14:28:10.258Z,50.1
2022-12-18T14:29:26.497Z,51.5
2022-12-18T14:30:42.736Z,50.1
2022-12-18T14:31:58.974Z,50.9
2022-12-18T14:33:15.230Z,53.8
2022-12-18T14:34:31.464Z,56
2022-12-18T14:35:47.694Z,52.3
2022-12-18T14:37:03.951Z,52
2022-12-18T14:38:20.190Z,52.5
2022-12-18T14:39:36.429Z,52
2022-12-18T14:40:51.691Z,52.2
2022-12-18T14:42:07.923Z,51.8
2022-12-18T14:43:24.168Z,56.2
2022-12-18T14:44:40.407Z,52.5
2022-12-18T14:45:56.643Z,51.7
2022-12-18T14:47:12.886Z,53
2022-12-18T14:48:29.125Z,50.9
2022-12-18T14:49:45.365Z,51
2022-12-18T14:51:01.612Z,51.4
2022-12-18T14:52:17.856Z,50.7
2022-12-18T14:53:34.094Z,51.5
2022-12-18T14:54:50.338Z,52.8
2022-12-18T14:56:06.574Z,52.5
2022-12-18T14:57:21.838Z,52.8
2022-12-18T14:58:38.077Z,51.5
2022-12-18T14:59:54.310Z,53
2022-12-18T15:01:10.569Z,51.5
2022-12-18T15:02:26.807Z,51.7
2022-12-18T15:03:43.036Z,50.7
2022-12-18T15:04:59.273Z,51.5
2022-12-18T15:06:15.515Z,52.2
2022-12-18T15:07:31.767Z,52
2022-12-18T15:08:48.007Z,59.2
2022-12-18T15:10:04.243Z,53.6
2022-12-18T15:11:20.490Z,52.6
2022-12-18T15:12:36.720Z,52.8
2022-12-18T15:13:51.993Z,51.8
2022-12-18T15:15:08.236Z,51.7
2022-12-18T15:16:24.472Z,52.5
2022-12-18T15:17:40.706Z,52.6
2022-12-18T15:18:56.955Z,53
2022-12-18T15:20:13.199Z,52.8
2022-12-18T15:21:29.431Z,53.1
2022-12-18T15:22:45.680Z,52.2
2022-12-18T15:24:01.921Z,52.3
2022-12-18T15:25:18.152Z,52.5
2022-12-18T15:26:34.400Z,53.3
2022-12-18T15:27:50.639Z,53.8
2022-12-18T15:29:06.886Z,53.9
2022-12-18T15:30:22.143Z,54.1
2022-12-18T15:31:38.376Z,53.9
2022-12-18T15:32:54.615Z,53.3
2022-12-18T15:34:10.872Z,53
2022-12-18T15:35:27.110Z,53.4
2022-12-18T15:36:43.405Z,55.1
2022-12-18T15:37:59.693Z,53.6
2022-12-18T15:39:15.987Z,53
2022-12-18T15:40:32.294Z,52.6
2022-12-18T15:41:48.584Z,53
2022-12-18T15:43:04.874Z,53
2022-12-18T15:44:21.175Z,53
2022-12-18T15:45:37.471Z,52.6
2022-12-18T15:46:52.787Z,52.5
2022-12-18T15:48:09.000Z,52.2
2022-12-18T15:49:25.369Z,54.4
2022-12-18T15:50:41.657Z,52.8
2022-12-18T15:51:57.957Z,53
2022-12-18T15:53:14.247Z,53.3
2022-12-18T15:54:30.551Z,53.4
2022-12-18T15:55:46.853Z,52.6
2022-12-18T15:57:03.134Z,53.1
2022-12-18T15:58:19.424Z,55.2
2022-12-18T15:59:35.728Z,53.6
2022-12-18T16:00:52.034Z,52.5
2022-12-18T16:02:08.317Z,51.8
2022-12-18T16:04:39.924Z,52.5
2022-12-18T16:05:56.231Z,52.5
2022-12-18T16:07:12.524Z,53.1
2022-12-18T16:08:28.811Z,52
2022-12-18T16:09:45.108Z,53
2022-12-18T16:11:01.400Z,54.1
2022-12-18T16:12:17.691Z,52
2022-12-18T16:13:33.984Z,53.1
2022-12-18T16:14:50.290Z,52.3
2022-12-18T16:16:06.589Z,55.5
2022-12-18T16:17:22.869Z,53.1
2022-12-18T16:18:39.184Z,52
2022-12-18T16:19:54.479Z,53.9
2022-12-18T16:21:10.788Z,53.6
2022-12-18T16:22:27.073Z,53.4
2022-12-18T16:23:43.374Z,54.4
2022-12-18T16:26:15.967Z,51.8
2022-12-18T16:27:32.265Z,51.8
2022-12-18T16:28:48.545Z,52
2022-12-18T16:30:04.856Z,52.5
2022-12-18T16:31:21.135Z,52.2
2022-12-18T16:32:37.444Z,53.3
2022-12-18T16:33:53.736Z,53.1
2022-12-18T16:35:10.031Z,52.5
2022-12-18T16:36:25.332Z,53.9
2022-12-18T16:37:41.627Z,54.9
2022-12-18T16:38:57.935Z,53
2022-12-18T16:40:14.226Z,52.6
2022-12-18T16:41:30.514Z,51.4
2022-12-18T16:42:46.817Z,51.7
2022-12-18T16:44:02.137Z,51.7
2022-12-18T16:45:18.428Z,51
2022-12-18T16:46:34.722Z,52
2022-12-18T16:47:51.023Z,52.2
2022-12-18T16:49:07.306Z,52.5
2022-12-18T16:50:23.610Z,51.7
2022-12-18T16:51:39.906Z,50.9
2022-12-18T16:52:56.201Z,51.5
2022-12-18T16:54:12.486Z,52
2022-12-18T16:55:28.784Z,52.2
2022-12-18T16:56:45.085Z,51.7
2022-12-18T16:58:01.370Z,51.7
2022-12-18T16:59:17.684Z,51.7
2022-12-18T17:00:32.977Z,52
2022-12-18T17:01:49.291Z,51.5
2022-12-18T17:03:05.583Z,51.8
2022-12-18T17:04:21.883Z,51.4
2022-12-18T17:05:38.171Z,52
2022-12-18T17:06:54.456Z,51.5
2022-12-18T17:08:10.756Z,51.4
2022-12-18T17:09:27.058Z,50.9
2022-12-18T17:10:43.342Z,51.5
2022-12-18T17:11:59.647Z,51.7
2022-12-18T17:13:15.937Z,51.7
2022-12-18T17:14:32.235Z,51.2
2022-12-18T17:15:48.531Z,52.5
2022-12-18T17:17:03.835Z,51.8
2022-12-18T17:18:20.148Z,52